Doksany, Czech Republic

6:03 PM CEST on April 23, 2017 (GMT +0200)
Strandgårdsvej | | Change Station

Elev 534 ft 50.46 °N, 14.23 °E | Updated 1 minute ago

Mostly Cloudy
Mostly Cloudy
47.5 °F
Feels Like 42 °F
N
12.4
Wind Variable Wind from West
Gusts 19.3 mph

Today
High -- | Low -- °F
--% Chance of Precip.
Yesterday
High -- | Low -- °F
Precip. -- in
Pressure 30.12 in
Visibility 6.2 miles
Clouds Scattered Clouds 3600 ft
Windchill 42 °F
Dew Point 34 °F
Humidity 60%
Rainfall 0.00 in
Snow Depth Not available.
5:53 AM 8:10 PM
Waning Crescent, 11% visible
METAR LKPR 231530Z 25016KT 9999 VCSH SCT036TCU 06/01 Q1020 NOSIG
Pressure 30.12 in
Visibility 6.2 miles
Clouds Scattered Clouds 3600 ft
Windchill 42 °F
Dew Point 34 °F
Humidity 60%
Rainfall 0.00 in
Snow Depth Not available.
5:53 AM 8:10 PM
Waning Crescent, 11% visible
METAR LKPR 231530Z 25016KT 9999 VCSH SCT036TCU 06/01 Q1020 NOSIG

Get Severe Weather Alerts

Thanks for signing up!

Be on the lookout for a verification email in your inbox.

You'll start receiving the daily forecast at 8 AM.

×

10-Day Weather Forecast

×

Almanac

Astronomy

Apr. 23, 2017 Rise Set
Actual Time
Civil Twilight
Nautical Twilight
Astronomical Twilight
Moon
Length of Visible Light
Length of Day
Tomorrow will be .
, % of the Moon is Illuminated

Today's Extremes

Country Highs Country Lows

Community

WunderPhotos

WunderBlog® & News

Nearby

Air Quality

  Air Quality AQ Index Pollutant
Not available.

Snow Depth

Station Depth Elevation

Earthquake Activity

City Distance Mag. Time & Date
Minimum magnitude displayed is 2.5.

Coastal Water Temperatures

Place Temperature

Stations

Nearby Weather Stations

Station Location Temp. Windchill Dew Point Humidity Wind Precip. Elev Updated Type